createdAt,value
2018-06-22T00:01:08.915Z,52.69
2018-06-22T00:03:34.878Z,51.87
2018-06-22T00:06:00.986Z,52.68
2018-06-22T00:08:26.950Z,51.98
2018-06-22T00:10:52.924Z,52.49
2018-06-22T00:13:18.908Z,52.56
2018-06-22T00:15:44.863Z,51.98
2018-06-22T00:18:10.822Z,51.35
2018-06-22T00:20:36.839Z,52.22
2018-06-22T00:23:02.815Z,52.16
2018-06-22T00:25:28.786Z,52.07
2018-06-22T00:27:54.766Z,52.25
2018-06-22T00:30:20.776Z,52.84
2018-06-22T00:32:46.732Z,51.68
2018-06-22T00:35:12.709Z,51.77
2018-06-22T00:37:38.666Z,51.35
2018-06-22T00:40:04.664Z,51.69
2018-06-22T00:42:30.619Z,51.98
2018-06-22T00:44:56.587Z,52.15
2018-06-22T00:47:22.556Z,52.35
2018-06-22T00:49:48.522Z,52.24
2018-06-22T00:52:14.480Z,51.29
2018-06-22T00:54:40.425Z,51.15
2018-06-22T00:57:06.437Z,52.12
2018-06-22T00:59:32.408Z,52.66
2018-06-22T01:01:58.377Z,52.24
2018-06-22T01:04:24.357Z,51.47
2018-06-22T01:06:50.356Z,51.26
2018-06-22T01:09:16.349Z,52.26
2018-06-22T01:11:42.318Z,51.13
2018-06-22T01:14:08.396Z,51.52
2018-06-22T01:16:34.355Z,51.91
2018-06-22T01:19:00.344Z,51.79
2018-06-22T01:21:26.300Z,52.16
2018-06-22T01:23:52.264Z,51.40
2018-06-22T01:26:18.235Z,51.85
2018-06-22T01:28:44.189Z,52.06
2018-06-22T01:31:10.149Z,51.72
2018-06-22T01:33:36.104Z,52.04
2018-06-22T01:36:02.099Z,52.60
2018-06-22T01:38:28.066Z,51.65
2018-06-22T01:40:54.074Z,52.27
2018-06-22T01:43:20.021Z,52.66
2018-06-22T01:45:45.984Z,52.10
2018-06-22T01:48:11.971Z,52.14
2018-06-22T01:50:38.157Z,51.35
2018-06-22T01:53:04.144Z,51.79
2018-06-22T01:55:31.485Z,52.57
2018-06-22T01:57:57.471Z,53.34
2018-06-22T02:00:23.425Z,52.28
2018-06-22T02:02:49.381Z,52.31
2018-06-22T02:05:15.338Z,53.09
2018-06-22T02:07:41.333Z,52.77
2018-06-22T02:10:07.404Z,51.33
2018-06-22T02:12:33.371Z,51.87
2018-06-22T02:14:59.338Z,51.83
2018-06-22T02:17:25.336Z,51.50
2018-06-22T02:19:51.315Z,51.96
2018-06-22T02:22:17.259Z,51.83
2018-06-22T02:24:43.243Z,52.87
2018-06-22T02:27:09.200Z,52.22
2018-06-22T02:29:35.201Z,52.50
2018-06-22T02:32:01.206Z,52.25
2018-06-22T02:34:27.188Z,52.23
2018-06-22T02:36:53.161Z,52.49
2018-06-22T02:39:19.157Z,51.70
2018-06-22T02:41:45.175Z,52.98
2018-06-22T02:44:11.152Z,52.83
2018-06-22T02:46:37.155Z,51.71
2018-06-22T02:49:03.139Z,52.02
2018-06-22T02:51:29.121Z,52.26
2018-06-22T02:53:55.119Z,52.91
2018-06-22T02:56:21.055Z,52.11
2018-06-22T02:58:47.048Z,51.85
2018-06-22T03:01:13.059Z,53.21
2018-06-22T03:03:39.009Z,52.16
2018-06-22T03:06:04.964Z,52.56
2018-06-22T03:08:30.929Z,52.28
2018-06-22T03:10:56.881Z,52.84
2018-06-22T03:13:22.856Z,52.07
2018-06-22T03:15:48.867Z,51.48
2018-06-22T03:18:14.902Z,52.31
2018-06-22T03:20:40.915Z,52.18
2018-06-22T03:23:06.882Z,52.24
2018-06-22T03:25:32.854Z,52.09
2018-06-22T03:27:58.814Z,53.35
2018-06-22T03:30:24.833Z,51.52
2018-06-22T03:32:50.810Z,52.09
2018-06-22T03:35:16.776Z,52.12
2018-06-22T03:37:42.737Z,52.04
2018-06-22T03:40:08.740Z,52.37
2018-06-22T03:42:34.707Z,52.98
2018-06-22T03:45:00.714Z,53.06
2018-06-22T03:47:26.694Z,52.32
2018-06-22T03:49:52.666Z,51.65
2018-06-22T03:52:18.655Z,52.47
2018-06-22T03:54:44.608Z,51.91
2018-06-22T03:57:10.646Z,53.12
2018-06-22T03:59:36.613Z,52.08
2018-06-22T04:02:02.567Z,52.65
2018-06-22T04:04:28.540Z,51.55
2018-06-22T04:06:54.531Z,52.16
2018-06-22T04:09:20.493Z,52.22
2018-06-22T04:11:46.472Z,52.31
2018-06-22T04:14:12.462Z,52.71
2018-06-22T04:16:38.429Z,52.07
2018-06-22T04:19:04.424Z,52.65
2018-06-22T04:21:30.392Z,52.91
2018-06-22T04:23:56.366Z,52.26
2018-06-22T04:26:22.346Z,53.29
2018-06-22T04:28:48.290Z,52.96
2018-06-22T04:31:14.275Z,52.44
2018-06-22T04:33:40.259Z,52.32
2018-06-22T04:36:06.221Z,52.86
2018-06-22T04:38:32.181Z,52.23
2018-06-22T04:40:58.143Z,52.90
2018-06-22T04:43:24.116Z,53.15
2018-06-22T04:45:50.060Z,52.73
2018-06-22T04:48:16.025Z,52.61
2018-06-22T04:50:41.982Z,52.41
2018-06-22T04:53:07.956Z,52.22
2018-06-22T04:55:33.916Z,52.85
2018-06-22T04:57:59.931Z,52.41
2018-06-22T05:00:25.902Z,53.18
2018-06-22T05:02:51.882Z,52.62
2018-06-22T05:05:17.842Z,53.14
2018-06-22T05:07:43.863Z,52.28
2018-06-22T05:10:09.849Z,52.26
2018-06-22T05:12:35.833Z,52.06
2018-06-22T05:15:01.850Z,52.15
2018-06-22T05:17:27.973Z,52.96
2018-06-22T05:19:53.945Z,52.73
2018-06-22T05:22:19.930Z,53.54
2018-06-22T05:24:45.925Z,52.60
2018-06-22T05:27:11.879Z,52.88
2018-06-22T05:29:37.868Z,53.37
2018-06-22T05:32:03.875Z,53.44
2018-06-22T05:34:29.841Z,53.16
2018-06-22T05:36:55.794Z,52.81
2018-06-22T05:39:21.751Z,53.59
2018-06-22T05:41:47.707Z,52.63
2018-06-22T05:44:13.676Z,55.06
2018-06-22T05:46:39.676Z,53.26
2018-06-22T05:49:05.718Z,53.25
2018-06-22T05:51:32.799Z,53.00
2018-06-22T05:53:58.801Z,52.50
2018-06-22T05:56:24.770Z,52.88
2018-06-22T05:58:50.751Z,53.13
2018-06-22T06:01:16.696Z,52.62
2018-06-22T06:03:42.696Z,52.22
2018-06-22T06:06:08.673Z,52.64
2018-06-22T06:08:34.651Z,52.56
2018-06-22T06:11:00.659Z,52.71
2018-06-22T06:13:26.639Z,52.90
2018-06-22T06:15:52.624Z,52.95
2018-06-22T06:18:18.576Z,52.42
2018-06-22T06:20:44.559Z,52.11
2018-06-22T06:23:10.525Z,52.93
2018-06-22T06:25:36.502Z,53.17
2018-06-22T06:28:02.516Z,55.41
2018-06-22T06:30:28.479Z,51.72
2018-06-22T06:32:54.470Z,53.33
2018-06-22T06:35:20.471Z,52.32
2018-06-22T06:37:46.453Z,53.28
2018-06-22T06:40:12.452Z,52.50
2018-06-22T06:42:38.451Z,53.04
2018-06-22T06:45:04.438Z,52.23
2018-06-22T06:47:30.443Z,52.78
2018-06-22T06:49:56.500Z,52.91
2018-06-22T06:52:22.453Z,53.30
2018-06-22T06:54:48.484Z,52.43
2018-06-22T06:57:14.473Z,52.07
2018-06-22T06:59:40.431Z,52.89
2018-06-22T07:02:06.395Z,52.77
2018-06-22T07:04:32.352Z,53.50
2018-06-22T07:06:58.365Z,52.38
2018-06-22T07:09:24.332Z,53.07
2018-06-22T07:11:50.405Z,52.63
2018-06-22T07:14:16.388Z,52.77
2018-06-22T07:16:42.360Z,53.58
2018-06-22T07:19:08.336Z,52.87
2018-06-22T07:21:34.290Z,52.38
2018-06-22T07:24:00.266Z,52.24
2018-06-22T07:26:26.262Z,52.69
2018-06-22T07:28:52.275Z,53.62
2018-06-22T07:31:18.257Z,52.91
2018-06-22T07:33:44.263Z,53.07
2018-06-22T07:36:10.257Z,54.18
2018-06-22T07:38:36.283Z,53.13
2018-06-22T07:41:02.253Z,52.92
2018-06-22T07:43:28.249Z,53.09
2018-06-22T07:45:54.836Z,51.81
2018-06-22T07:48:20.813Z,52.96
2018-06-22T07:50:46.778Z,52.62
2018-06-22T07:53:12.744Z,52.98
2018-06-22T07:55:38.701Z,53.19
2018-06-22T07:58:04.667Z,53.20
2018-06-22T08:00:30.655Z,53.32
2018-06-22T08:02:56.621Z,52.88
2018-06-22T08:05:22.604Z,53.29
2018-06-22T08:07:48.596Z,52.85
2018-06-22T08:10:14.603Z,52.77
2018-06-22T08:12:40.575Z,53.19
2018-06-22T08:15:06.550Z,53.06
2018-06-22T08:17:32.520Z,53.42
2018-06-22T08:19:58.516Z,53.00
2018-06-22T08:22:24.478Z,52.87
2018-06-22T08:24:50.463Z,53.50
2018-06-22T08:27:16.446Z,53.39
2018-06-22T08:29:42.445Z,52.99
2018-06-22T08:32:08.462Z,53.14
2018-06-22T08:34:34.513Z,52.63
2018-06-22T08:37:00.501Z,52.85
2018-06-22T08:39:26.440Z,53.21
2018-06-22T08:41:52.573Z,53.48
2018-06-22T08:44:18.395Z,52.90
2018-06-22T08:46:44.364Z,53.11
2018-06-22T08:49:10.330Z,53.17
2018-06-22T08:51:36.318Z,53.38
2018-06-22T08:54:02.288Z,53.98
2018-06-22T08:56:28.301Z,55.14
2018-06-22T08:58:54.348Z,53.82
2018-06-22T09:01:20.389Z,53.22
2018-06-22T09:03:46.314Z,52.45
2018-06-22T09:06:12.300Z,52.90
2018-06-22T09:08:38.260Z,52.84
2018-06-22T09:11:04.233Z,53.45
2018-06-22T09:13:30.188Z,52.72
2018-06-22T09:15:56.176Z,52.79
2018-06-22T09:18:22.146Z,53.66
2018-06-22T09:20:48.113Z,52.76
2018-06-22T09:23:14.083Z,53.28
2018-06-22T09:25:40.105Z,53.01
2018-06-22T09:28:06.069Z,52.77
2018-06-22T09:30:32.061Z,53.87
2018-06-22T09:32:58.024Z,53.73
2018-06-22T09:35:23.994Z,53.77
2018-06-22T09:37:49.934Z,54.47
2018-06-22T09:40:15.904Z,52.90
2018-06-22T09:42:41.898Z,53.84
2018-06-22T09:45:07.843Z,54.22
2018-06-22T09:47:33.826Z,53.58
2018-06-22T09:49:59.821Z,53.44
2018-06-22T09:52:25.785Z,54.10
2018-06-22T09:54:51.785Z,53.08
2018-06-22T09:57:17.739Z,54.16
2018-06-22T09:59:43.719Z,52.68
2018-06-22T10:02:09.705Z,54.14
2018-06-22T10:04:35.658Z,53.36
2018-06-22T10:07:01.654Z,53.91
2018-06-22T10:09:27.677Z,53.64
2018-06-22T10:11:53.600Z,53.23
2018-06-22T10:14:19.560Z,53.35
2018-06-22T10:16:45.536Z,53.05
2018-06-22T10:19:11.535Z,53.54
2018-06-22T10:21:37.544Z,53.58
2018-06-22T10:24:03.495Z,53.30
2018-06-22T10:26:29.479Z,53.45
2018-06-22T10:28:55.487Z,56.20
2018-06-22T10:31:21.460Z,53.63
2018-06-22T10:33:47.418Z,53.43
2018-06-22T10:36:13.404Z,53.11
2018-06-22T10:38:39.386Z,53.54
2018-06-22T10:41:06.381Z,53.59
2018-06-22T10:43:32.329Z,54.01
2018-06-22T10:45:58.339Z,53.72
2018-06-22T10:48:24.260Z,53.54
2018-06-22T10:50:50.248Z,54.97
2018-06-22T10:53:16.199Z,53.37
2018-06-22T10:55:42.195Z,53.25
2018-06-22T10:58:08.160Z,53.67
2018-06-22T11:00:34.109Z,53.09
2018-06-22T11:03:00.087Z,54.18
2018-06-22T11:05:26.156Z,53.61
2018-06-22T11:07:52.131Z,55.29
2018-06-22T11:10:18.084Z,53.89
2018-06-22T11:12:44.152Z,53.84
2018-06-22T11:15:10.112Z,53.65
2018-06-22T11:17:36.086Z,53.70
2018-06-22T11:20:02.092Z,54.00
2018-06-22T11:22:28.111Z,54.01
2018-06-22T11:24:54.141Z,53.59
2018-06-22T11:27:20.164Z,53.65
2018-06-22T11:29:46.078Z,53.75
2018-06-22T11:32:12.092Z,54.03
2018-06-22T11:34:38.088Z,53.76
2018-06-22T11:37:04.129Z,53.90
2018-06-22T11:39:30.103Z,53.77
2018-06-22T11:44:28.361Z,53.13
2018-06-22T11:46:54.430Z,53.75
2018-06-22T11:49:20.405Z,54.16
2018-06-22T11:51:46.384Z,53.50
2018-06-22T11:54:12.361Z,53.77
2018-06-22T11:56:38.356Z,54.99
2018-06-22T11:59:04.349Z,53.76
2018-06-22T12:01:30.344Z,53.81
2018-06-22T12:03:56.322Z,54.16
2018-06-22T12:06:22.336Z,53.80
2018-06-22T12:08:48.339Z,54.17
2018-06-22T12:11:14.331Z,54.71
2018-06-22T12:13:40.357Z,54.39
2018-06-22T12:16:06.341Z,56.65
2018-06-22T12:18:32.345Z,54.92
2018-06-22T12:20:58.308Z,54.10
2018-06-22T12:23:24.274Z,54.07
2018-06-22T12:25:50.307Z,54.37
2018-06-22T12:28:16.457Z,54.62
2018-06-22T12:30:42.432Z,56.28
2018-06-22T12:33:08.503Z,54.90
2018-06-22T12:35:34.443Z,55.61
2018-06-22T12:38:00.423Z,55.26
2018-06-22T12:40:28.480Z,54.22
2018-06-22T12:42:54.450Z,54.03
2018-06-22T12:45:20.481Z,54.57
2018-06-22T12:47:46.461Z,54.63
2018-06-22T12:50:12.425Z,54.11
2018-06-22T12:52:38.512Z,53.86
2018-06-22T12:55:04.540Z,55.21
2018-06-22T12:57:30.530Z,55.00
2018-06-22T12:59:56.557Z,54.26
2018-06-22T13:02:22.703Z,55.01
2018-06-22T13:04:48.697Z,54.26
2018-06-22T13:07:14.686Z,54.07
2018-06-22T13:09:40.763Z,54.41
2018-06-22T13:12:06.705Z,54.20
2018-06-22T13:14:32.694Z,53.44
2018-06-22T13:16:58.695Z,55.26
2018-06-22T13:19:24.656Z,57.25
2018-06-22T13:21:50.921Z,54.74
2018-06-22T13:24:17.016Z,55.66
2018-06-22T13:26:43.025Z,54.48
2018-06-22T13:29:09.060Z,54.31
2018-06-22T13:31:35.047Z,55.12
2018-06-22T13:34:01.040Z,54.63
2018-06-22T13:36:27.042Z,54.19
2018-06-22T13:38:53.028Z,55.13
2018-06-22T13:41:19.001Z,54.83
2018-06-22T13:43:45.032Z,55.74
2018-06-22T13:46:10.976Z,55.30
2018-06-22T13:48:37.003Z,55.28
2018-06-22T13:51:02.999Z,54.55
2018-06-22T13:53:28.999Z,54.31
2018-06-22T13:55:55.009Z,55.24
2018-06-22T13:58:20.991Z,54.70
2018-06-22T14:00:46.965Z,55.28
2018-06-22T14:03:12.943Z,55.48
2018-06-22T14:05:38.952Z,55.03
2018-06-22T14:08:05.003Z,56.12
2018-06-22T14:10:30.988Z,55.39
2018-06-22T14:12:56.983Z,56.44
2018-06-22T14:15:25.060Z,55.28
2018-06-22T14:17:51.041Z,55.77
2018-06-22T14:20:17.046Z,55.44
2018-06-22T14:22:43.029Z,54.81
2018-06-22T14:25:09.030Z,56.17
2018-06-22T14:27:35.017Z,55.97
2018-06-22T14:30:00.986Z,55.69
2018-06-22T14:32:26.958Z,56.59
2018-06-22T14:34:52.974Z,56.28
2018-06-22T14:37:18.960Z,56.32
2018-06-22T14:39:44.939Z,56.29
2018-06-22T14:42:10.895Z,56.10
2018-06-22T14:44:36.884Z,56.59
2018-06-22T14:47:02.882Z,56.38
2018-06-22T14:49:28.897Z,57.17
2018-06-22T14:51:54.949Z,57.13
2018-06-22T14:54:20.887Z,57.51
2018-06-22T14:56:46.872Z,57.12
2018-06-22T14:59:12.927Z,57.15
2018-06-22T15:01:38.956Z,57.39
2018-06-22T15:04:04.992Z,56.95
2018-06-22T15:06:30.993Z,56.71
2018-06-22T15:08:56.974Z,57.00
2018-06-22T15:11:22.955Z,57.71
2018-06-22T15:13:48.936Z,57.12
2018-06-22T15:16:14.938Z,57.13
2018-06-22T15:18:40.983Z,56.92
2018-06-22T15:21:06.960Z,56.88
2018-06-22T15:23:32.923Z,57.52
2018-06-22T15:25:58.906Z,56.98
2018-06-22T15:28:25.004Z,58.10
2018-06-22T15:30:51.039Z,58.20
2018-06-22T15:33:17.001Z,57.32
2018-06-22T15:35:42.996Z,57.44
2018-06-22T15:38:09.026Z,57.43
2018-06-22T15:40:35.016Z,57.37
2018-06-22T15:43:01.093Z,57.40
2018-06-22T15:45:27.092Z,58.17
2018-06-22T15:47:53.134Z,57.12
2018-06-22T15:50:19.151Z,57.58
2018-06-22T15:52:45.130Z,57.49
2018-06-22T15:55:11.221Z,57.58
2018-06-22T15:57:37.255Z,58.13
2018-06-22T16:00:03.247Z,57.62
2018-06-22T16:02:29.323Z,57.69
2018-06-22T16:04:55.330Z,57.21
2018-06-22T16:07:21.313Z,57.29
2018-06-22T16:09:47.395Z,57.53
2018-06-22T16:12:13.370Z,57.28
2018-06-22T16:14:39.357Z,56.83
2018-06-22T16:17:05.342Z,57.19
2018-06-22T16:19:31.344Z,56.41
2018-06-22T16:21:57.332Z,57.09
2018-06-22T16:24:23.320Z,56.65
2018-06-22T16:26:49.291Z,57.70
2018-06-22T16:29:15.287Z,57.36
2018-06-22T16:31:41.272Z,57.23
2018-06-22T16:34:07.280Z,56.37
2018-06-22T16:36:33.274Z,57.73
2018-06-22T16:38:59.264Z,57.22
2018-06-22T16:41:25.216Z,55.73
2018-06-22T16:43:51.257Z,57.87
2018-06-22T16:46:17.272Z,55.27
2018-06-22T16:48:43.245Z,54.83
2018-06-22T16:51:09.241Z,56.83
2018-06-22T16:53:35.318Z,54.74
2018-06-22T16:56:01.335Z,55.28
2018-06-22T16:58:27.371Z,55.03
2018-06-22T17:00:54.455Z,57.66
2018-06-22T17:03:21.332Z,57.65
2018-06-22T17:05:47.305Z,56.38
2018-06-22T17:08:13.313Z,55.93
2018-06-22T17:10:39.365Z,55.53
2018-06-22T17:13:05.348Z,58.01
2018-06-22T17:15:31.342Z,56.07
2018-06-22T17:17:57.305Z,56.32
2018-06-22T17:20:23.277Z,55.67
2018-06-22T17:22:49.259Z,55.50
2018-06-22T17:25:15.274Z,55.93
2018-06-22T17:27:41.252Z,56.07
2018-06-22T17:30:07.287Z,56.70
2018-06-22T17:32:33.255Z,55.92
2018-06-22T17:34:59.235Z,55.43
2018-06-22T17:37:25.223Z,56.76
2018-06-22T17:39:51.220Z,56.42
2018-06-22T17:42:17.226Z,56.17
2018-06-22T17:44:43.190Z,55.60
2018-06-22T17:47:09.165Z,56.37
2018-06-22T17:49:35.150Z,56.01
2018-06-22T17:52:01.163Z,56.20
2018-06-22T17:54:27.138Z,56.02
2018-06-22T17:56:53.108Z,55.76
2018-06-22T17:59:19.120Z,56.40
2018-06-22T18:01:45.112Z,56.78
2018-06-22T18:04:11.089Z,56.35
2018-06-22T18:06:37.083Z,55.94
2018-06-22T18:09:03.101Z,56.66
2018-06-22T18:11:29.085Z,57.42
2018-06-22T18:13:55.190Z,57.17
2018-06-22T18:16:21.702Z,56.35
2018-06-22T18:18:47.708Z,55.85
2018-06-22T18:21:13.763Z,56.02
2018-06-22T18:23:39.787Z,56.14
2018-06-22T18:26:05.789Z,57.38
2018-06-22T18:28:31.808Z,55.54
2018-06-22T18:30:57.814Z,53.82
2018-06-22T18:33:23.837Z,54.57
2018-06-22T18:35:49.866Z,54.19
2018-06-22T18:38:15.874Z,53.98
2018-06-22T18:40:41.876Z,52.35
2018-06-22T18:43:07.888Z,49.99
2018-06-22T18:45:33.865Z,50.45
2018-06-22T18:47:59.933Z,51.64
2018-06-22T18:50:25.957Z,50.94
2018-06-22T18:52:51.974Z,51.27
2018-06-22T18:55:18.001Z,49.47
2018-06-22T18:57:44.096Z,47.50
2018-06-22T19:00:10.011Z,47.46
2018-06-22T19:02:35.997Z,47.47
2018-06-22T19:05:02.107Z,47.16
2018-06-22T19:07:28.113Z,48.01
2018-06-22T19:09:54.122Z,48.46
2018-06-22T19:12:20.128Z,50.23
2018-06-22T19:14:46.168Z,48.51
2018-06-22T19:17:12.155Z,48.89
2018-06-22T19:19:38.211Z,49.80
2018-06-22T19:22:04.197Z,50.56
2018-06-22T19:24:30.253Z,49.34
2018-06-22T19:26:57.090Z,48.97
2018-06-22T19:29:23.084Z,50.39
2018-06-22T19:31:49.103Z,50.68
2018-06-22T19:34:15.124Z,49.81
2018-06-22T19:36:41.173Z,48.85
2018-06-22T19:39:07.190Z,49.29
2018-06-22T19:41:33.162Z,48.59
2018-06-22T19:43:59.143Z,49.06
2018-06-22T19:46:25.123Z,49.18
2018-06-22T19:48:51.161Z,48.90
2018-06-22T19:51:17.150Z,49.18
2018-06-22T19:53:43.141Z,48.89
2018-06-22T19:56:09.148Z,49.97
2018-06-22T19:58:35.134Z,49.47
2018-06-22T20:01:01.142Z,48.99
2018-06-22T20:03:27.119Z,48.97
2018-06-22T20:05:53.124Z,50.82
2018-06-22T20:08:19.096Z,49.96
2018-06-22T20:10:45.077Z,50.69
2018-06-22T20:13:11.095Z,49.59
2018-06-22T20:15:37.079Z,49.76
2018-06-22T20:18:03.075Z,51.93
2018-06-22T20:20:29.076Z,50.43
2018-06-22T20:22:55.088Z,50.87
2018-06-22T20:25:21.090Z,50.99
2018-06-22T20:27:47.072Z,49.81
2018-06-22T20:30:13.065Z,49.42
2018-06-22T20:32:39.055Z,48.80
2018-06-22T20:35:05.061Z,50.69
2018-06-22T20:37:31.074Z,49.63
2018-06-22T20:39:57.050Z,49.68
2018-06-22T20:42:23.072Z,49.28
2018-06-22T20:44:49.038Z,50.63
2018-06-22T20:47:15.042Z,50.75
2018-06-22T20:49:41.030Z,50.25
2018-06-22T20:52:07.001Z,50.07
2018-06-22T20:54:32.975Z,50.86
2018-06-22T20:56:58.962Z,50.34
2018-06-22T20:59:24.988Z,50.34
2018-06-22T21:01:51.007Z,49.42
2018-06-22T21:04:17.005Z,50.39
2018-06-22T21:06:43.007Z,51.04
2018-06-22T21:09:08.962Z,51.26
2018-06-22T21:11:34.929Z,51.28
2018-06-22T21:14:00.935Z,51.92
2018-06-22T21:16:26.920Z,50.81
2018-06-22T21:18:52.892Z,52.35
2018-06-22T21:21:18.878Z,50.48
2018-06-22T21:23:44.885Z,51.92
2018-06-22T21:26:10.849Z,51.12
2018-06-22T21:28:36.843Z,51.01
2018-06-22T21:31:02.823Z,51.93
2018-06-22T21:33:28.793Z,51.37
2018-06-22T21:35:54.779Z,51.42
2018-06-22T21:38:20.892Z,51.36
2018-06-22T21:40:46.886Z,52.66
2018-06-22T21:43:12.874Z,51.68
2018-06-22T21:45:38.871Z,51.56
2018-06-22T21:48:04.832Z,51.55
2018-06-22T21:50:30.821Z,51.59
2018-06-22T21:52:56.829Z,51.56
2018-06-22T21:55:22.810Z,51.34
2018-06-22T21:57:48.787Z,52.21
2018-06-22T22:00:14.781Z,51.67
2018-06-22T22:02:40.767Z,51.67
2018-06-22T22:05:06.747Z,52.09
2018-06-22T22:07:32.743Z,52.97
2018-06-22T22:09:58.749Z,52.69
2018-06-22T22:12:24.726Z,52.14
2018-06-22T22:14:51.422Z,51.97
2018-06-22T22:17:17.399Z,51.62
2018-06-22T22:19:43.385Z,53.60
2018-06-22T22:22:09.367Z,52.58
2018-06-22T22:24:35.594Z,53.01
2018-06-22T22:27:01.617Z,52.52
2018-06-22T22:29:27.592Z,52.08
2018-06-22T22:31:53.579Z,52.15
2018-06-22T22:34:19.679Z,52.58
2018-06-22T22:36:45.712Z,51.77
2018-06-22T22:39:11.697Z,51.81
2018-06-22T22:41:37.674Z,52.33
2018-06-22T22:44:03.657Z,52.47
2018-06-22T22:46:29.641Z,52.49
2018-06-22T22:48:55.622Z,52.16
2018-06-22T22:51:21.591Z,52.79
2018-06-22T22:53:48.653Z,51.97
2018-06-22T22:56:14.672Z,52.70
2018-06-22T22:58:40.679Z,53.15
2018-06-22T23:01:06.665Z,52.43
2018-06-22T23:03:32.620Z,52.58
2018-06-22T23:05:58.584Z,52.15
2018-06-22T23:08:24.560Z,52.14
2018-06-22T23:10:50.553Z,52.87
2018-06-22T23:13:16.607Z,52.72
2018-06-22T23:15:42.608Z,53.25
2018-06-22T23:18:08.601Z,52.87
2018-06-22T23:20:34.628Z,52.37
2018-06-22T23:23:00.624Z,52.41
2018-06-22T23:25:26.580Z,52.95
2018-06-22T23:27:52.586Z,52.72
2018-06-22T23:30:18.579Z,53.19
2018-06-22T23:32:44.551Z,52.30
2018-06-22T23:35:10.522Z,53.43
2018-06-22T23:37:36.525Z,52.33
2018-06-22T23:40:02.539Z,53.29
2018-06-22T23:42:28.517Z,52.96
2018-06-22T23:44:54.508Z,53.59
2018-06-22T23:47:20.535Z,52.38
2018-06-22T23:49:46.505Z,53.99
2018-06-22T23:52:12.540Z,52.51
2018-06-22T23:54:38.508Z,53.34
2018-06-22T23:57:04.498Z,51.79
2018-06-22T23:59:30.525Z,52.25
